sensor_id;sensor_type;location;lat;lon;timestamp;temperature;humidity
14699;DHT22;7439;50.804;4.602;2022-07-09T00:01:27;13.10;91.10
14699;DHT22;7439;50.804;4.602;2022-07-09T00:03:55;13.10;99.90
14699;DHT22;7439;50.804;4.602;2022-07-09T00:06:22;13.00;99.90
14699;DHT22;7439;50.804;4.602;2022-07-09T00:08:49;13.00;99.90
14699;DHT22;7439;50.804;4.602;2022-07-09T00:11:16;13.00;99.90
14699;DHT22;7439;50.804;4.602;2022-07-09T00:13:43;13.00;99.90
14699;DHT22;7439;50.804;4.602;2022-07-09T00:16:10;13.00;99.90
14699;DHT22;7439;50.804;4.602;2022-07-09T00:18:37;13.00;99.90
14699;DHT22;7439;50.804;4.602;2022-07-09T00:21:06;13.00;99.90
14699;DHT22;7439;50.804;4.602;2022-07-09T00:23:33;13.00;99.90
14699;DHT22;7439;50.804;4.602;2022-07-09T00:26:00;13.00;99.90
14699;DHT22;7439;50.804;4.602;2022-07-09T00:28:27;13.00;99.90
14699;DHT22;7439;50.804;4.602;2022-07-09T00:30:54;13.10;99.90
14699;DHT22;7439;50.804;4.602;2022-07-09T00:33:21;13.00;99.90
14699;DHT22;7439;50.804;4.602;2022-07-09T00:35:48;13.00;99.90
14699;DHT22;7439;50.804;4.602;2022-07-09T00:38:16;13.00;99.90
14699;DHT22;7439;50.804;4.602;2022-07-09T00:40:43;12.90;99.90
14699;DHT22;7439;50.804;4.602;2022-07-09T00:43:17;12.80;99.90
14699;DHT22;7439;50.804;4.602;2022-07-09T00:45:45;12.80;99.90
14699;DHT22;7439;50.804;4.602;2022-07-09T00:48:12;12.90;99.90
14699;DHT22;7439;50.804;4.602;2022-07-09T00:50:40;12.80;99.90
14699;DHT22;7439;50.804;4.602;2022-07-09T00:53:08;12.80;99.90
14699;DHT22;7439;50.804;4.602;2022-07-09T00:55:37;12.70;99.90
14699;DHT22;7439;50.804;4.602;2022-07-09T00:58:05;12.70;99.90
14699;DHT22;7439;50.804;4.602;2022-07-09T01:00:33;12.70;99.90
14699;DHT22;7439;50.804;4.602;2022-07-09T01:03:01;12.60;99.90
14699;DHT22;7439;50.804;4.602;2022-07-09T01:05:28;12.60;1.00
14699;DHT22;7439;50.804;4.602;2022-07-09T01:08:02;12.60;1.00
14699;DHT22;7439;50.804;4.602;2022-07-09T01:10:29;12.60;1.00
14699;DHT22;7439;50.804;4.602;2022-07-09T01:12:58;12.60;1.00
14699;DHT22;7439;50.804;4.602;2022-07-09T01:15:25;12.50;1.00
14699;DHT22;7439;50.804;4.602;2022-07-09T01:17:52;12.50;1.00
14699;DHT22;7439;50.804;4.602;2022-07-09T01:20:23;12.50;1.00
14699;DHT22;7439;50.804;4.602;2022-07-09T01:22:51;12.50;1.00
14699;DHT22;7439;50.804;4.602;2022-07-09T01:25:19;12.50;1.00
14699;DHT22;7439;50.804;4.602;2022-07-09T01:27:46;12.50;1.00
14699;DHT22;7439;50.804;4.602;2022-07-09T01:30:23;12.40;1.00
14699;DHT22;7439;50.804;4.602;2022-07-09T01:32:52;12.30;1.00
14699;DHT22;7439;50.804;4.602;2022-07-09T01:35:19;12.40;1.00
14699;DHT22;7439;50.804;4.602;2022-07-09T01:37:48;12.40;1.00
14699;DHT22;7439;50.804;4.602;2022-07-09T01:40:15;12.40;1.00
14699;DHT22;7439;50.804;4.602;2022-07-09T01:42:42;12.30;99.90
14699;DHT22;7439;50.804;4.602;2022-07-09T01:45:10;12.30;99.90
14699;DHT22;7439;50.804;4.602;2022-07-09T01:47:37;12.30;99.90
14699;DHT22;7439;50.804;4.602;2022-07-09T01:50:05;12.30;99.90
14699;DHT22;7439;50.804;4.602;2022-07-09T01:52:33;12.30;99.90
14699;DHT22;7439;50.804;4.602;2022-07-09T01:55:01;12.30;99.90
14699;DHT22;7439;50.804;4.602;2022-07-09T01:57:29;12.40;99.90
14699;DHT22;7439;50.804;4.602;2022-07-09T01:59:56;12.40;99.90
14699;DHT22;7439;50.804;4.602;2022-07-09T02:02:23;12.40;99.90
14699;DHT22;7439;50.804;4.602;2022-07-09T02:04:50;12.30;99.90
14699;DHT22;7439;50.804;4.602;2022-07-09T02:07:17;12.30;99.90
14699;DHT22;7439;50.804;4.602;2022-07-09T02:09:44;12.30;99.90
14699;DHT22;7439;50.804;4.602;2022-07-09T02:12:12;12.20;99.90
14699;DHT22;7439;50.804;4.602;2022-07-09T02:14:39;12.10;99.90
14699;DHT22;7439;50.804;4.602;2022-07-09T02:17:06;12.10;99.90
14699;DHT22;7439;50.804;4.602;2022-07-09T02:19:33;12.00;99.90
14699;DHT22;7439;50.804;4.602;2022-07-09T02:22:00;12.00;99.90
14699;DHT22;7439;50.804;4.602;2022-07-09T02:24:27;12.10;1.00
14699;DHT22;7439;50.804;4.602;2022-07-09T02:26:55;12.00;1.00
14699;DHT22;7439;50.804;4.602;2022-07-09T02:29:23;12.00;1.00
14699;DHT22;7439;50.804;4.602;2022-07-09T02:31:52;12.00;1.00
14699;DHT22;7439;50.804;4.602;2022-07-09T02:34:20;12.00;1.00
14699;DHT22;7439;50.804;4.602;2022-07-09T02:36:48;12.00;1.00
14699;DHT22;7439;50.804;4.602;2022-07-09T02:39:15;12.00;1.00
14699;DHT22;7439;50.804;4.602;2022-07-09T02:41:42;12.00;1.00
14699;DHT22;7439;50.804;4.602;2022-07-09T02:44:12;12.10;1.00
14699;DHT22;7439;50.804;4.602;2022-07-09T02:46:40;12.10;1.00
14699;DHT22;7439;50.804;4.602;2022-07-09T02:49:07;12.10;1.00
14699;DHT22;7439;50.804;4.602;2022-07-09T02:51:36;12.10;1.00
14699;DHT22;7439;50.804;4.602;2022-07-09T02:54:03;12.00;1.00
14699;DHT22;7439;50.804;4.602;2022-07-09T02:56:30;12.00;1.00
14699;DHT22;7439;50.804;4.602;2022-07-09T02:58:57;12.00;1.00
14699;DHT22;7439;50.804;4.602;2022-07-09T03:01:24;12.00;1.00
14699;DHT22;7439;50.804;4.602;2022-07-09T03:03:53;11.90;1.00
14699;DHT22;7439;50.804;4.602;2022-07-09T03:06:21;11.90;1.00
14699;DHT22;7439;50.804;4.602;2022-07-09T03:08:48;11.80;1.00
14699;DHT22;7439;50.804;4.602;2022-07-09T03:11:15;11.80;1.00
14699;DHT22;7439;50.804;4.602;2022-07-09T03:13:42;11.80;19.40
14699;DHT22;7439;50.804;4.602;2022-07-09T03:16:09;11.80;65.00
14699;DHT22;7439;50.804;4.602;2022-07-09T03:18:37;11.80;99.90
14699;DHT22;7439;50.804;4.602;2022-07-09T03:21:06;11.80;99.90
14699;DHT22;7439;50.804;4.602;2022-07-09T03:23:34;11.90;99.90
14699;DHT22;7439;50.804;4.602;2022-07-09T03:26:01;11.90;99.90
14699;DHT22;7439;50.804;4.602;2022-07-09T03:28:30;12.00;99.90
14699;DHT22;7439;50.804;4.602;2022-07-09T03:30:57;12.00;99.90
14699;DHT22;7439;50.804;4.602;2022-07-09T03:33:24;12.10;99.90
14699;DHT22;7439;50.804;4.602;2022-07-09T03:35:53;12.10;99.90
14699;DHT22;7439;50.804;4.602;2022-07-09T03:38:22;12.20;99.90
14699;DHT22;7439;50.804;4.602;2022-07-09T03:40:49;12.30;99.90
14699;DHT22;7439;50.804;4.602;2022-07-09T03:43:16;12.40;99.90
14699;DHT22;7439;50.804;4.602;2022-07-09T03:45:43;12.40;99.90
14699;DHT22;7439;50.804;4.602;2022-07-09T03:48:10;12.50;1.00
14699;DHT22;7439;50.804;4.602;2022-07-09T03:50:37;12.60;1.00
14699;DHT22;7439;50.804;4.602;2022-07-09T03:53:04;12.60;1.00
14699;DHT22;7439;50.804;4.602;2022-07-09T03:55:33;12.70;1.00
14699;DHT22;7439;50.804;4.602;2022-07-09T03:58:00;12.70;1.00
14699;DHT22;7439;50.804;4.602;2022-07-09T04:00:29;12.70;1.00
14699;DHT22;7439;50.804;4.602;2022-07-09T04:02:56;12.70;1.00
14699;DHT22;7439;50.804;4.602;2022-07-09T04:05:24;12.70;1.00
14699;DHT22;7439;50.804;4.602;2022-07-09T04:07:51;12.70;1.00
14699;DHT22;7439;50.804;4.602;2022-07-09T04:10:18;12.70;99.90
14699;DHT22;7439;50.804;4.602;2022-07-09T04:12:47;12.70;99.90
14699;DHT22;7439;50.804;4.602;2022-07-09T04:15:14;12.80;1.00
14699;DHT22;7439;50.804;4.602;2022-07-09T04:17:41;12.80;99.90
14699;DHT22;7439;50.804;4.602;2022-07-09T04:20:09;12.80;99.90
14699;DHT22;7439;50.804;4.602;2022-07-09T04:22:36;12.80;99.90
14699;DHT22;7439;50.804;4.602;2022-07-09T04:25:04;12.90;99.90
14699;DHT22;7439;50.804;4.602;2022-07-09T04:27:31;13.00;99.90
14699;DHT22;7439;50.804;4.602;2022-07-09T04:30:01;13.10;1.00
14699;DHT22;7439;50.804;4.602;2022-07-09T04:32:28;13.20;1.00
14699;DHT22;7439;50.804;4.602;2022-07-09T04:34:54;13.20;1.00
14699;DHT22;7439;50.804;4.602;2022-07-09T04:37:22;13.30;1.00
14699;DHT22;7439;50.804;4.602;2022-07-09T04:39:49;13.40;1.00
14699;DHT22;7439;50.804;4.602;2022-07-09T04:42:16;13.40;1.00
14699;DHT22;7439;50.804;4.602;2022-07-09T04:44:45;13.50;99.90
14699;DHT22;7439;50.804;4.602;2022-07-09T04:47:13;13.40;99.90
14699;DHT22;7439;50.804;4.602;2022-07-09T04:49:40;13.50;99.90
14699;DHT22;7439;50.804;4.602;2022-07-09T04:52:07;13.50;99.90
14699;DHT22;7439;50.804;4.602;2022-07-09T04:54:37;13.60;99.90
14699;DHT22;7439;50.804;4.602;2022-07-09T04:57:05;13.60;99.90
14699;DHT22;7439;50.804;4.602;2022-07-09T04:59:32;13.60;99.90
14699;DHT22;7439;50.804;4.602;2022-07-09T05:02:02;13.60;99.90
14699;DHT22;7439;50.804;4.602;2022-07-09T05:04:30;13.80;99.90
14699;DHT22;7439;50.804;4.602;2022-07-09T05:07:01;13.80;99.90
14699;DHT22;7439;50.804;4.602;2022-07-09T05:09:28;13.80;99.90
14699;DHT22;7439;50.804;4.602;2022-07-09T05:11:57;13.90;99.90
14699;DHT22;7439;50.804;4.602;2022-07-09T05:14:24;14.10;99.90
14699;DHT22;7439;50.804;4.602;2022-07-09T05:16:51;14.20;99.90
14699;DHT22;7439;50.804;4.602;2022-07-09T05:19:18;14.30;99.90
14699;DHT22;7439;50.804;4.602;2022-07-09T05:21:47;14.30;1.00
14699;DHT22;7439;50.804;4.602;2022-07-09T05:24:14;14.40;1.00
14699;DHT22;7439;50.804;4.602;2022-07-09T05:26:41;14.40;1.00
14699;DHT22;7439;50.804;4.602;2022-07-09T05:29:08;14.50;1.00
14699;DHT22;7439;50.804;4.602;2022-07-09T05:31:35;14.70;1.00
14699;DHT22;7439;50.804;4.602;2022-07-09T05:34:02;14.90;1.00
14699;DHT22;7439;50.804;4.602;2022-07-09T05:36:29;15.00;99.90
14699;DHT22;7439;50.804;4.602;2022-07-09T05:38:58;15.30;31.20
14699;DHT22;7439;50.804;4.602;2022-07-09T05:41:25;15.30;1.00
14699;DHT22;7439;50.804;4.602;2022-07-09T05:43:53;15.50;1.00
14699;DHT22;7439;50.804;4.602;2022-07-09T05:46:21;15.60;99.90
14699;DHT22;7439;50.804;4.602;2022-07-09T05:48:48;15.70;99.90
14699;DHT22;7439;50.804;4.602;2022-07-09T05:51:15;15.70;99.90
14699;DHT22;7439;50.804;4.602;2022-07-09T05:53:43;15.70;99.90
14699;DHT22;7439;50.804;4.602;2022-07-09T05:56:11;15.70;99.90
14699;DHT22;7439;50.804;4.602;2022-07-09T05:58:38;15.60;99.90
14699;DHT22;7439;50.804;4.602;2022-07-09T06:01:05;15.80;99.90
14699;DHT22;7439;50.804;4.602;2022-07-09T06:03:32;16.00;99.90
14699;DHT22;7439;50.804;4.602;2022-07-09T06:05:59;16.30;99.90
14699;DHT22;7439;50.804;4.602;2022-07-09T06:08:26;16.50;2.10
14699;DHT22;7439;50.804;4.602;2022-07-09T06:10:53;16.70;1.00
14699;DHT22;7439;50.804;4.602;2022-07-09T06:13:22;16.80;1.00
14699;DHT22;7439;50.804;4.602;2022-07-09T06:15:49;16.90;1.00
14699;DHT22;7439;50.804;4.602;2022-07-09T06:18:16;17.10;99.90
14699;DHT22;7439;50.804;4.602;2022-07-09T06:20:43;17.20;99.90
14699;DHT22;7439;50.804;4.602;2022-07-09T06:23:10;17.30;99.90
14699;DHT22;7439;50.804;4.602;2022-07-09T06:25:37;17.40;99.90
14699;DHT22;7439;50.804;4.602;2022-07-09T06:28:06;17.40;99.90
14699;DHT22;7439;50.804;4.602;2022-07-09T06:30:34;17.40;99.90
14699;DHT22;7439;50.804;4.602;2022-07-09T06:33:02;17.40;99.90
14699;DHT22;7439;50.804;4.602;2022-07-09T06:35:29;17.50;99.90
14699;DHT22;7439;50.804;4.602;2022-07-09T06:37:57;17.70;99.90
14699;DHT22;7439;50.804;4.602;2022-07-09T06:40:23;17.90;99.90
14699;DHT22;7439;50.804;4.602;2022-07-09T06:42:50;18.10;99.90
14699;DHT22;7439;50.804;4.602;2022-07-09T06:45:17;18.30;86.40
14699;DHT22;7439;50.804;4.602;2022-07-09T06:47:46;18.60;1.00
14699;DHT22;7439;50.804;4.602;2022-07-09T06:50:13;18.80;1.00
14699;DHT22;7439;50.804;4.602;2022-07-09T06:52:40;19.00;1.00
14699;DHT22;7439;50.804;4.602;2022-07-09T06:55:08;19.20;1.00
14699;DHT22;7439;50.804;4.602;2022-07-09T06:57:36;19.30;1.00
14699;DHT22;7439;50.804;4.602;2022-07-09T07:00:04;19.50;99.90
14699;DHT22;7439;50.804;4.602;2022-07-09T07:02:31;19.70;1.00
14699;DHT22;7439;50.804;4.602;2022-07-09T07:04:59;19.70;1.00
14699;DHT22;7439;50.804;4.602;2022-07-09T07:07:27;19.70;99.90
14699;DHT22;7439;50.804;4.602;2022-07-09T07:09:54;19.90;99.90
14699;DHT22;7439;50.804;4.602;2022-07-09T07:12:21;20.10;99.90
14699;DHT22;7439;50.804;4.602;2022-07-09T07:14:48;20.30;99.90
14699;DHT22;7439;50.804;4.602;2022-07-09T07:17:16;20.50;99.90
14699;DHT22;7439;50.804;4.602;2022-07-09T07:19:43;20.60;99.90
14699;DHT22;7439;50.804;4.602;2022-07-09T07:22:11;21.00;99.90
14699;DHT22;7439;50.804;4.602;2022-07-09T07:24:38;21.30;99.90
14699;DHT22;7439;50.804;4.602;2022-07-09T07:27:05;21.30;99.90
14699;DHT22;7439;50.804;4.602;2022-07-09T07:29:32;21.60;99.90
14699;DHT22;7439;50.804;4.602;2022-07-09T07:32:03;21.80;99.90
14699;DHT22;7439;50.804;4.602;2022-07-09T07:34:30;21.90;96.60
14699;DHT22;7439;50.804;4.602;2022-07-09T07:36:57;22.10;99.90
14699;DHT22;7439;50.804;4.602;2022-07-09T07:39:25;22.40;45.40
14699;DHT22;7439;50.804;4.602;2022-07-09T07:41:52;22.50;97.90
14699;DHT22;7439;50.804;4.602;2022-07-09T07:44:19;22.60;1.00
14699;DHT22;7439;50.804;4.602;2022-07-09T07:46:48;22.20;1.00
14699;DHT22;7439;50.804;4.602;2022-07-09T07:49:15;21.90;1.00
14699;DHT22;7439;50.804;4.602;2022-07-09T07:51:43;21.80;1.00
14699;DHT22;7439;50.804;4.602;2022-07-09T07:54:10;21.90;1.00
14699;DHT22;7439;50.804;4.602;2022-07-09T07:56:39;22.00;1.00
14699;DHT22;7439;50.804;4.602;2022-07-09T07:59:06;22.60;4.80
14699;DHT22;7439;50.804;4.602;2022-07-09T08:01:33;23.40;1.00
14699;DHT22;7439;50.804;4.602;2022-07-09T08:04:01;23.60;1.00
14699;DHT22;7439;50.804;4.602;2022-07-09T08:06:28;23.50;1.00
14699;DHT22;7439;50.804;4.602;2022-07-09T08:08:55;23.30;1.00
14699;DHT22;7439;50.804;4.602;2022-07-09T08:11:22;23.20;1.00
14699;DHT22;7439;50.804;4.602;2022-07-09T08:13:50;23.20;1.00
14699;DHT22;7439;50.804;4.602;2022-07-09T08:16:18;23.40;1.00
14699;DHT22;7439;50.804;4.602;2022-07-09T08:18:45;23.70;1.00
14699;DHT22;7439;50.804;4.602;2022-07-09T08:21:12;24.10;1.00
14699;DHT22;7439;50.804;4.602;2022-07-09T08:23:39;24.50;1.00
14699;DHT22;7439;50.804;4.602;2022-07-09T08:26:19;24.50;1.00
14699;DHT22;7439;50.804;4.602;2022-07-09T08:28:47;24.30;1.00
14699;DHT22;7439;50.804;4.602;2022-07-09T08:31:15;24.10;1.00
14699;DHT22;7439;50.804;4.602;2022-07-09T08:33:42;24.30;1.00
14699;DHT22;7439;50.804;4.602;2022-07-09T08:36:10;24.20;1.00
14699;DHT22;7439;50.804;4.602;2022-07-09T08:38:36;24.00;1.00
14699;DHT22;7439;50.804;4.602;2022-07-09T08:41:04;24.30;1.00
14699;DHT22;7439;50.804;4.602;2022-07-09T08:43:35;24.70;1.00
14699;DHT22;7439;50.804;4.602;2022-07-09T08:46:04;24.80;1.00
14699;DHT22;7439;50.804;4.602;2022-07-09T08:48:33;25.00;1.00
14699;DHT22;7439;50.804;4.602;2022-07-09T08:51:01;25.20;1.00
14699;DHT22;7439;50.804;4.602;2022-07-09T08:53:29;25.10;1.00
14699;DHT22;7439;50.804;4.602;2022-07-09T08:55:56;25.40;1.00
14699;DHT22;7439;50.804;4.602;2022-07-09T08:58:24;25.70;1.00
14699;DHT22;7439;50.804;4.602;2022-07-09T09:00:51;25.70;1.00
14699;DHT22;7439;50.804;4.602;2022-07-09T09:03:18;26.10;1.00
14699;DHT22;7439;50.804;4.602;2022-07-09T09:06:00;26.60;1.00
14699;DHT22;7439;50.804;4.602;2022-07-09T09:08:27;26.60;1.00
14699;DHT22;7439;50.804;4.602;2022-07-09T09:10:54;27.00;1.00
14699;DHT22;7439;50.804;4.602;2022-07-09T09:13:21;26.80;1.00
14699;DHT22;7439;50.804;4.602;2022-07-09T09:15:48;26.50;1.00
14699;DHT22;7439;50.804;4.602;2022-07-09T09:18:16;26.70;1.00
14699;DHT22;7439;50.804;4.602;2022-07-09T09:20:45;27.00;1.00
14699;DHT22;7439;50.804;4.602;2022-07-09T09:23:17;27.00;1.00
14699;DHT22;7439;50.804;4.602;2022-07-09T09:25:44;27.50;1.00
14699;DHT22;7439;50.804;4.602;2022-07-09T09:28:12;27.80;1.00
14699;DHT22;7439;50.804;4.602;2022-07-09T09:30:41;28.40;1.00
14699;DHT22;7439;50.804;4.602;2022-07-09T09:33:09;29.00;1.00
14699;DHT22;7439;50.804;4.602;2022-07-09T09:35:43;29.10;1.00
14699;DHT22;7439;50.804;4.602;2022-07-09T09:38:10;29.20;1.00
14699;DHT22;7439;50.804;4.602;2022-07-09T09:40:45;29.10;1.00
14699;DHT22;7439;50.804;4.602;2022-07-09T09:43:14;28.90;1.00
14699;DHT22;7439;50.804;4.602;2022-07-09T09:45:45;29.60;1.00
14699;DHT22;7439;50.804;4.602;2022-07-09T09:48:16;29.90;1.00
14699;DHT22;7439;50.804;4.602;2022-07-09T09:50:46;30.20;1.00
14699;DHT22;7439;50.804;4.602;2022-07-09T09:53:14;30.20;1.00
14699;DHT22;7439;50.804;4.602;2022-07-09T09:55:43;30.10;1.00
14699;DHT22;7439;50.804;4.602;2022-07-09T09:58:13;30.00;1.00
14699;DHT22;7439;50.804;4.602;2022-07-09T10:00:41;30.20;1.00
14699;DHT22;7439;50.804;4.602;2022-07-09T10:03:10;29.80;1.00
14699;DHT22;7439;50.804;4.602;2022-07-09T10:05:38;29.50;1.00
14699;DHT22;7439;50.804;4.602;2022-07-09T10:08:06;28.80;1.00
14699;DHT22;7439;50.804;4.602;2022-07-09T10:10:33;28.10;1.00
14699;DHT22;7439;50.804;4.602;2022-07-09T10:13:02;27.60;1.00
14699;DHT22;7439;50.804;4.602;2022-07-09T10:15:31;28.00;1.00
14699;DHT22;7439;50.804;4.602;2022-07-09T10:18:09;28.40;1.00
14699;DHT22;7439;50.804;4.602;2022-07-09T10:20:36;28.30;1.00
14699;DHT22;7439;50.804;4.602;2022-07-09T10:23:03;28.10;1.00
14699;DHT22;7439;50.804;4.602;2022-07-09T10:25:41;28.70;1.00
14699;DHT22;7439;50.804;4.602;2022-07-09T10:28:15;29.20;1.00
14699;DHT22;7439;50.804;4.602;2022-07-09T10:30:43;29.20;1.00
14699;DHT22;7439;50.804;4.602;2022-07-09T10:33:13;28.80;1.00
14699;DHT22;7439;50.804;4.602;2022-07-09T10:35:42;28.10;1.00
14699;DHT22;7439;50.804;4.602;2022-07-09T10:38:09;27.60;1.00
14699;DHT22;7439;50.804;4.602;2022-07-09T10:40:40;28.90;1.00
14699;DHT22;7439;50.804;4.602;2022-07-09T10:43:08;29.90;1.00
14699;DHT22;7439;50.804;4.602;2022-07-09T10:45:41;29.40;1.00
14699;DHT22;7439;50.804;4.602;2022-07-09T10:48:10;28.60;1.00
14699;DHT22;7439;50.804;4.602;2022-07-09T10:50:39;28.00;1.00
14699;DHT22;7439;50.804;4.602;2022-07-09T10:53:06;28.50;1.00
14699;DHT22;7439;50.804;4.602;2022-07-09T10:55:34;28.70;1.00
14699;DHT22;7439;50.804;4.602;2022-07-09T10:58:01;29.70;1.00
14699;DHT22;7439;50.804;4.602;2022-07-09T11:00:33;30.40;1.00
14699;DHT22;7439;50.804;4.602;2022-07-09T11:03:04;29.90;1.00
14699;DHT22;7439;50.804;4.602;2022-07-09T11:05:32;30.50;1.00
14699;DHT22;7439;50.804;4.602;2022-07-09T11:08:02;31.10;1.00
14699;DHT22;7439;50.804;4.602;2022-07-09T11:10:30;31.30;1.00
14699;DHT22;7439;50.804;4.602;2022-07-09T11:12:58;31.80;1.00
14699;DHT22;7439;50.804;4.602;2022-07-09T11:15:27;31.50;1.00
14699;DHT22;7439;50.804;4.602;2022-07-09T11:17:58;31.10;1.00
14699;DHT22;7439;50.804;4.602;2022-07-09T11:20:27;31.10;1.00
14699;DHT22;7439;50.804;4.602;2022-07-09T11:22:55;30.60;1.00
14699;DHT22;7439;50.804;4.602;2022-07-09T11:25:23;30.60;1.00
14699;DHT22;7439;50.804;4.602;2022-07-09T11:27:52;31.20;1.00
14699;DHT22;7439;50.804;4.602;2022-07-09T11:30:20;30.70;1.00
14699;DHT22;7439;50.804;4.602;2022-07-09T11:32:47;30.10;1.00
14699;DHT22;7439;50.804;4.602;2022-07-09T11:35:24;29.30;1.00
14699;DHT22;7439;50.804;4.602;2022-07-09T11:37:53;28.80;1.00
14699;DHT22;7439;50.804;4.602;2022-07-09T11:40:21;28.80;1.00
14699;DHT22;7439;50.804;4.602;2022-07-09T11:42:48;28.10;1.00
14699;DHT22;7439;50.804;4.602;2022-07-09T11:45:20;27.30;1.00
14699;DHT22;7439;50.804;4.602;2022-07-09T11:47:47;26.80;1.00
14699;DHT22;7439;50.804;4.602;2022-07-09T11:50:15;26.40;1.00
14699;DHT22;7439;50.804;4.602;2022-07-09T11:52:45;26.60;1.00
14699;DHT22;7439;50.804;4.602;2022-07-09T11:55:17;27.60;1.00
14699;DHT22;7439;50.804;4.602;2022-07-09T11:57:52;28.30;1.00
14699;DHT22;7439;50.804;4.602;2022-07-09T12:00:24;28.50;1.00
14699;DHT22;7439;50.804;4.602;2022-07-09T12:02:51;29.00;1.00
14699;DHT22;7439;50.804;4.602;2022-07-09T12:05:26;29.70;1.00
14699;DHT22;7439;50.804;4.602;2022-07-09T12:07:55;30.30;1.00
14699;DHT22;7439;50.804;4.602;2022-07-09T12:10:28;30.70;1.00
14699;DHT22;7439;50.804;4.602;2022-07-09T12:12:56;30.90;1.00
14699;DHT22;7439;50.804;4.602;2022-07-09T12:15:23;30.90;1.00
14699;DHT22;7439;50.804;4.602;2022-07-09T12:17:56;30.20;1.00
14699;DHT22;7439;50.804;4.602;2022-07-09T12:20:24;30.40;1.00
14699;DHT22;7439;50.804;4.602;2022-07-09T12:22:51;30.40;1.00
14699;DHT22;7439;50.804;4.602;2022-07-09T12:25:19;30.50;1.00
14699;DHT22;7439;50.804;4.602;2022-07-09T12:27:48;29.60;1.00
14699;DHT22;7439;50.804;4.602;2022-07-09T12:30:16;28.80;1.00
14699;DHT22;7439;50.804;4.602;2022-07-09T12:32:43;28.70;1.00
14699;DHT22;7439;50.804;4.602;2022-07-09T12:35:11;28.90;1.00
14699;DHT22;7439;50.804;4.602;2022-07-09T12:37:38;28.60;1.00
14699;DHT22;7439;50.804;4.602;2022-07-09T12:40:08;28.30;1.00
14699;DHT22;7439;50.804;4.602;2022-07-09T12:42:36;27.50;1.00
14699;DHT22;7439;50.804;4.602;2022-07-09T12:45:06;27.40;1.00
14699;DHT22;7439;50.804;4.602;2022-07-09T12:47:33;28.50;1.00
14699;DHT22;7439;50.804;4.602;2022-07-09T12:50:00;28.50;1.00
14699;DHT22;7439;50.804;4.602;2022-07-09T12:52:29;27.50;1.00
14699;DHT22;7439;50.804;4.602;2022-07-09T12:54:58;27.40;1.00
14699;DHT22;7439;50.804;4.602;2022-07-09T12:57:25;28.80;1.00
14699;DHT22;7439;50.804;4.602;2022-07-09T12:59:53;29.20;1.00
14699;DHT22;7439;50.804;4.602;2022-07-09T13:02:21;28.00;1.00
14699;DHT22;7439;50.804;4.602;2022-07-09T13:04:48;26.80;1.00
14699;DHT22;7439;50.804;4.602;2022-07-09T13:07:15;26.60;1.00
14699;DHT22;7439;50.804;4.602;2022-07-09T13:09:42;26.40;1.00
14699;DHT22;7439;50.804;4.602;2022-07-09T13:12:09;27.00;1.00
14699;DHT22;7439;50.804;4.602;2022-07-09T13:14:36;26.80;1.00
14699;DHT22;7439;50.804;4.602;2022-07-09T13:17:04;26.20;1.00
14699;DHT22;7439;50.804;4.602;2022-07-09T13:19:32;25.70;1.00
14699;DHT22;7439;50.804;4.602;2022-07-09T13:21:59;25.80;1.00
14699;DHT22;7439;50.804;4.602;2022-07-09T13:24:26;27.00;1.00
14699;DHT22;7439;50.804;4.602;2022-07-09T13:26:53;28.20;1.00
14699;DHT22;7439;50.804;4.602;2022-07-09T13:29:20;29.20;1.00
14699;DHT22;7439;50.804;4.602;2022-07-09T13:31:47;28.70;1.00
14699;DHT22;7439;50.804;4.602;2022-07-09T13:34:14;28.30;1.00
14699;DHT22;7439;50.804;4.602;2022-07-09T13:36:42;28.10;1.00
14699;DHT22;7439;50.804;4.602;2022-07-09T13:39:10;27.80;1.00
14699;DHT22;7439;50.804;4.602;2022-07-09T13:41:37;27.70;1.00
14699;DHT22;7439;50.804;4.602;2022-07-09T13:44:04;27.40;1.00
14699;DHT22;7439;50.804;4.602;2022-07-09T13:46:33;27.20;1.00
14699;DHT22;7439;50.804;4.602;2022-07-09T13:49:00;28.20;1.00
14699;DHT22;7439;50.804;4.602;2022-07-09T13:51:27;28.70;1.00
14699;DHT22;7439;50.804;4.602;2022-07-09T13:53:56;28.70;1.00
14699;DHT22;7439;50.804;4.602;2022-07-09T13:56:23;27.90;1.00
14699;DHT22;7439;50.804;4.602;2022-07-09T13:58:50;27.60;1.00
14699;DHT22;7439;50.804;4.602;2022-07-09T14:01:17;27.30;1.00
14699;DHT22;7439;50.804;4.602;2022-07-09T14:03:45;28.10;1.00
14699;DHT22;7439;50.804;4.602;2022-07-09T14:06:12;28.00;1.00
14699;DHT22;7439;50.804;4.602;2022-07-09T14:08:39;27.00;1.00
14699;DHT22;7439;50.804;4.602;2022-07-09T14:11:08;26.10;1.00
14699;DHT22;7439;50.804;4.602;2022-07-09T14:13:35;25.60;1.00
14699;DHT22;7439;50.804;4.602;2022-07-09T14:16:02;25.00;1.00
14699;DHT22;7439;50.804;4.602;2022-07-09T14:18:29;24.50;1.00
14699;DHT22;7439;50.804;4.602;2022-07-09T14:20:56;23.90;1.00
14699;DHT22;7439;50.804;4.602;2022-07-09T14:23:23;23.70;1.00
14699;DHT22;7439;50.804;4.602;2022-07-09T14:25:50;23.70;1.00
14699;DHT22;7439;50.804;4.602;2022-07-09T14:28:18;23.80;1.00
14699;DHT22;7439;50.804;4.602;2022-07-09T14:30:45;24.00;1.00
14699;DHT22;7439;50.804;4.602;2022-07-09T14:33:12;24.00;1.00
14699;DHT22;7439;50.804;4.602;2022-07-09T14:35:40;24.00;1.00
14699;DHT22;7439;50.804;4.602;2022-07-09T14:38:07;23.90;1.00
14699;DHT22;7439;50.804;4.602;2022-07-09T14:40:34;23.70;1.00
14699;DHT22;7439;50.804;4.602;2022-07-09T14:43:01;23.50;1.00
14699;DHT22;7439;50.804;4.602;2022-07-09T14:45:30;23.40;1.00
14699;DHT22;7439;50.804;4.602;2022-07-09T14:47:58;23.30;1.00
14699;DHT22;7439;50.804;4.602;2022-07-09T14:50:25;23.40;1.00
14699;DHT22;7439;50.804;4.602;2022-07-09T14:52:55;23.30;1.00
14699;DHT22;7439;50.804;4.602;2022-07-09T14:55:22;23.30;1.00
14699;DHT22;7439;50.804;4.602;2022-07-09T14:57:49;23.00;1.00
14699;DHT22;7439;50.804;4.602;2022-07-09T15:00:16;22.90;1.00
14699;DHT22;7439;50.804;4.602;2022-07-09T15:02:44;22.80;1.00
14699;DHT22;7439;50.804;4.602;2022-07-09T15:05:11;22.70;1.00
14699;DHT22;7439;50.804;4.602;2022-07-09T15:07:38;22.50;1.00
14699;DHT22;7439;50.804;4.602;2022-07-09T15:10:07;22.50;1.00
14699;DHT22;7439;50.804;4.602;2022-07-09T15:12:34;22.30;1.00
14699;DHT22;7439;50.804;4.602;2022-07-09T15:15:00;22.30;1.00
14699;DHT22;7439;50.804;4.602;2022-07-09T15:17:27;22.30;1.00
14699;DHT22;7439;50.804;4.602;2022-07-09T15:19:56;22.30;1.00
14699;DHT22;7439;50.804;4.602;2022-07-09T15:22:23;22.20;1.00
14699;DHT22;7439;50.804;4.602;2022-07-09T15:24:50;22.20;1.00
14699;DHT22;7439;50.804;4.602;2022-07-09T15:27:17;22.20;1.00
14699;DHT22;7439;50.804;4.602;2022-07-09T15:29:44;22.30;1.00
14699;DHT22;7439;50.804;4.602;2022-07-09T15:32:11;22.20;1.00
14699;DHT22;7439;50.804;4.602;2022-07-09T15:34:38;22.20;1.00
14699;DHT22;7439;50.804;4.602;2022-07-09T15:37:06;22.10;1.00
14699;DHT22;7439;50.804;4.602;2022-07-09T15:39:33;22.10;1.00
14699;DHT22;7439;50.804;4.602;2022-07-09T15:42:00;22.00;1.00
14699;DHT22;7439;50.804;4.602;2022-07-09T15:44:27;21.90;1.00
14699;DHT22;7439;50.804;4.602;2022-07-09T15:46:54;22.00;1.00
14699;DHT22;7439;50.804;4.602;2022-07-09T15:49:22;21.90;1.00
14699;DHT22;7439;50.804;4.602;2022-07-09T15:51:49;21.80;1.00
14699;DHT22;7439;50.804;4.602;2022-07-09T15:54:17;21.70;1.00
14699;DHT22;7439;50.804;4.602;2022-07-09T15:56:45;21.60;1.00
14699;DHT22;7439;50.804;4.602;2022-07-09T15:59:12;21.60;1.00
14699;DHT22;7439;50.804;4.602;2022-07-09T16:01:39;21.60;1.00